createdAt,value
2019-03-08T10:19:56.131Z,270.00
2019-03-08T10:21:14.342Z,286.88
2019-03-08T10:22:14.342Z,320.62
2019-03-08T10:23:19.855Z,343.12
2019-03-08T10:24:16.394Z,337.50
2019-03-08T10:25:15.397Z,343.12
2019-03-08T10:26:15.386Z,343.12
2019-03-08T10:27:15.392Z,343.12
2019-03-08T10:28:47.341Z,343.12
2019-03-08T10:29:15.361Z,365.62
2019-03-08T10:30:15.353Z,382.50
2019-03-08T10:31:15.359Z,399.38
2019-03-08T10:32:15.355Z,405.00
2019-03-08T10:33:15.343Z,416.25
2019-03-08T10:34:15.335Z,399.38
2019-03-08T10:35:23.555Z,393.75
2019-03-08T10:36:17.317Z,399.38
2019-03-08T10:37:15.313Z,393.75
2019-03-08T10:38:22.306Z,405.00
2019-03-08T10:39:17.287Z,405.00
2019-03-08T10:40:15.289Z,416.25
2019-03-08T10:41:15.279Z,421.88
2019-03-08T10:42:15.275Z,421.88
2019-03-08T10:43:15.262Z,438.75
2019-03-08T10:44:15.595Z,444.38
2019-03-08T10:45:16.251Z,427.50
2019-03-08T10:46:15.936Z,421.88
2019-03-08T10:47:16.241Z,410.62
2019-03-08T10:48:15.237Z,410.62
2019-03-08T10:49:15.254Z,393.75
2019-03-08T10:50:15.232Z,433.12
2019-03-08T10:51:15.223Z,438.75
2019-03-08T10:52:18.005Z,461.25
2019-03-08T10:53:16.211Z,466.88
2019-03-08T10:54:15.220Z,483.75
2019-03-08T10:55:15.207Z,495.00
2019-03-08T10:56:15.210Z,511.88
2019-03-08T10:57:15.209Z,517.50
2019-03-08T10:58:15.190Z,511.88
2019-03-08T10:59:15.208Z,495.00
2019-03-08T11:00:15.202Z,495.00
2019-03-08T11:01:15.160Z,500.62
2019-03-08T11:02:15.168Z,568.12
2019-03-08T11:03:15.153Z,511.88
2019-03-08T11:04:15.139Z,495.00
2019-03-08T11:05:15.129Z,489.38
2019-03-08T11:06:15.124Z,455.62
2019-03-08T11:07:15.122Z,455.62
2019-03-08T11:08:15.108Z,478.12
2019-03-08T11:09:15.097Z,489.38
2019-03-08T11:10:15.093Z,511.88
2019-03-08T11:11:15.082Z,500.62
2019-03-08T11:12:15.089Z,528.75
2019-03-08T11:13:15.073Z,607.50
2019-03-08T11:14:15.062Z,489.38
2019-03-08T11:15:23.926Z,500.62
2019-03-08T11:16:16.058Z,663.75
2019-03-08T11:17:15.069Z,562.50
2019-03-08T11:18:15.042Z,556.88
2019-03-08T11:19:15.041Z,506.25
2019-03-08T11:20:15.022Z,472.50
2019-03-08T11:21:15.123Z,433.12
2019-03-08T11:22:16.043Z,399.38
2019-03-08T11:23:15.001Z,405.00
2019-03-08T11:24:14.989Z,393.75
2019-03-08T11:25:14.991Z,343.12
2019-03-08T11:26:14.982Z,292.50
2019-03-08T11:27:14.992Z,281.25
2019-03-08T11:28:21.133Z,320.62
2019-03-08T11:29:16.982Z,326.25
2019-03-08T11:30:14.969Z,292.50
2019-03-08T11:31:14.963Z,393.75
2019-03-08T11:32:22.740Z,393.75
2019-03-08T11:33:16.960Z,365.62
2019-03-08T11:34:14.944Z,337.50
2019-03-08T11:35:15.947Z,466.88
2019-03-08T11:36:14.947Z,528.75
2019-03-08T11:37:14.942Z,517.50
2019-03-08T11:38:14.943Z,483.75
2019-03-08T11:39:14.922Z,455.62
2019-03-08T11:40:14.931Z,433.12
2019-03-08T11:41:14.904Z,433.12
2019-03-08T11:42:14.900Z,461.25
2019-03-08T11:43:14.904Z,528.75
2019-03-08T11:44:14.887Z,506.25
2019-03-08T11:45:14.878Z,483.75
2019-03-08T11:46:14.871Z,399.38
2019-03-08T11:47:14.865Z,410.62
2019-03-08T11:48:14.870Z,427.50
2019-03-08T11:49:14.880Z,393.75
2019-03-08T11:50:14.843Z,416.25
2019-03-08T11:51:14.837Z,410.62
2019-03-08T11:52:14.830Z,393.75
2019-03-08T11:53:14.844Z,382.50
2019-03-08T11:54:14.818Z,388.12
2019-03-08T11:55:14.809Z,393.75
2019-03-08T11:56:14.811Z,388.12
2019-03-08T11:57:14.807Z,393.75
2019-03-08T11:58:14.814Z,399.38
2019-03-08T11:59:14.818Z,416.25
2019-03-08T12:00:14.810Z,410.62
2019-03-08T12:01:14.802Z,427.50
2019-03-08T12:03:52.199Z,433.12
2019-03-08T12:04:52.199Z,433.12
2019-03-08T12:05:53.308Z,416.25
2019-03-08T12:06:53.319Z,405.00
2019-03-08T12:07:53.324Z,393.75
2019-03-08T12:09:25.284Z,376.88
2019-03-08T12:09:53.296Z,348.75
2019-03-08T12:10:53.298Z,303.75
2019-03-08T12:11:53.286Z,309.38
2019-03-08T12:12:53.274Z,315.00
2019-03-08T12:13:53.282Z,331.88
2019-03-08T12:14:53.260Z,360.00
2019-03-08T12:15:53.254Z,405.00
2019-03-08T12:16:54.252Z,450.00
2019-03-08T12:17:53.247Z,478.12
2019-03-08T12:18:53.249Z,523.12
2019-03-08T12:19:53.231Z,478.12
2019-03-08T12:20:53.226Z,450.00
2019-03-08T12:21:53.210Z,500.62
2019-03-08T12:22:53.210Z,545.62
2019-03-08T12:23:53.213Z,511.88
2019-03-08T12:24:53.196Z,495.00
2019-03-08T12:25:53.190Z,433.12
2019-03-08T12:26:53.185Z,416.25
2019-03-08T12:27:53.167Z,393.75
2019-03-08T12:28:53.179Z,399.38
2019-03-08T12:29:53.152Z,438.75
2019-03-08T12:30:53.262Z,337.50
2019-03-08T12:31:53.371Z,376.88
2019-03-08T12:32:53.248Z,303.75
2019-03-08T12:33:53.491Z,292.50
2019-03-08T12:34:54.399Z,281.25
2019-03-08T12:35:53.367Z,281.25
2019-03-08T12:36:53.368Z,292.50
2019-03-08T12:37:53.235Z,292.50
2019-03-08T12:38:53.202Z,286.88
2019-03-08T12:39:53.257Z,292.50
2019-03-08T12:40:53.212Z,303.75
2019-03-08T12:41:53.796Z,326.25
2019-03-08T12:42:53.226Z,326.25
2019-03-08T12:43:53.300Z,331.88
2019-03-08T12:44:53.289Z,371.25
2019-03-08T12:45:53.126Z,365.62
2019-03-08T12:46:53.117Z,331.88
2019-03-08T12:47:53.115Z,393.75
2019-03-08T12:48:53.166Z,405.00
2019-03-08T12:49:53.071Z,264.38
2019-03-08T12:50:53.061Z,264.38
2019-03-08T12:51:53.055Z,258.75
2019-03-08T12:52:53.043Z,241.88
2019-03-08T12:53:53.048Z,241.88
2019-03-08T12:54:53.034Z,360.00
2019-03-08T12:55:53.012Z,309.38
2019-03-08T12:56:53.012Z,286.88
2019-03-08T12:57:53.002Z,303.75
2019-03-08T12:58:53.042Z,376.88
2019-03-08T12:59:53.004Z,388.12
2019-03-08T13:00:52.994Z,382.50
2019-03-08T13:01:53.076Z,399.38
2019-03-08T13:02:52.980Z,416.25
2019-03-08T13:03:53.002Z,405.00
2019-03-08T13:04:52.964Z,388.12
2019-03-08T13:05:52.946Z,382.50
2019-03-08T13:06:52.941Z,371.25
2019-03-08T13:07:52.938Z,348.75
2019-03-08T13:08:52.952Z,365.62
2019-03-08T13:09:52.922Z,337.50
2019-03-08T13:10:52.943Z,315.00
2019-03-08T13:11:52.927Z,365.62
2019-03-08T13:12:52.922Z,371.25
2019-03-08T13:13:52.908Z,388.12
2019-03-08T13:14:52.935Z,376.88
2019-03-08T13:15:52.958Z,365.62
2019-03-08T13:16:52.909Z,371.25
2019-03-08T13:17:52.906Z,376.88
2019-03-08T13:18:52.895Z,382.50
2019-03-08T13:19:52.898Z,410.62
2019-03-08T13:20:52.890Z,438.75
2019-03-08T13:21:52.883Z,399.38
2019-03-08T13:22:52.874Z,348.75
2019-03-08T13:23:52.872Z,365.62
2019-03-08T13:24:52.879Z,433.12
2019-03-08T13:25:52.847Z,309.38
2019-03-08T13:26:53.844Z,410.62
2019-03-08T13:27:52.837Z,354.38
2019-03-08T13:28:52.829Z,354.38
2019-03-08T13:29:52.833Z,371.25
2019-03-08T13:30:52.820Z,303.75
2019-03-08T13:31:52.822Z,286.88
2019-03-08T13:32:52.802Z,365.62
2019-03-08T13:33:52.787Z,365.62
2019-03-08T13:34:52.784Z,348.75
2019-03-08T13:35:53.781Z,354.38
2019-03-08T13:36:52.767Z,258.75
2019-03-08T13:37:52.758Z,348.75
2019-03-08T13:38:52.757Z,376.88
2019-03-08T13:39:52.748Z,281.25
2019-03-08T13:40:52.742Z,371.25
2019-03-08T13:41:52.733Z,365.62
2019-03-08T13:42:52.729Z,360.00
2019-03-08T13:43:52.717Z,270.00
2019-03-08T13:44:52.733Z,331.88
2019-03-08T13:45:52.704Z,320.62
2019-03-08T13:46:52.694Z,320.62
2019-03-08T13:47:52.699Z,326.25
2019-03-08T13:48:52.690Z,286.88
2019-03-08T13:49:52.690Z,320.62
2019-03-08T13:50:52.676Z,309.38
2019-03-08T13:51:52.708Z,303.75
2019-03-08T13:52:52.694Z,303.75
2019-03-08T13:53:52.680Z,298.12
2019-03-08T13:54:52.688Z,298.12
2019-03-08T13:55:52.661Z,258.75
2019-03-08T13:56:52.657Z,191.25
2019-03-08T13:57:52.635Z,275.62
2019-03-08T13:58:52.641Z,196.88
2019-03-08T13:59:52.641Z,286.88
2019-03-08T14:00:52.618Z,191.25
2019-03-08T14:01:52.609Z,219.38
2019-03-08T14:02:52.611Z,185.62
2019-03-08T14:03:52.611Z,202.50
2019-03-08T14:04:52.593Z,213.75
2019-03-08T14:05:52.588Z,213.75
2019-03-08T14:06:52.567Z,219.38
2019-03-08T14:07:52.560Z,219.38
2019-03-08T14:08:52.550Z,202.50
2019-03-08T14:09:52.553Z,196.88
2019-03-08T14:10:52.553Z,202.50
2019-03-08T14:11:52.555Z,236.25
2019-03-08T14:12:52.538Z,292.50
2019-03-08T14:13:52.536Z,275.62
2019-03-08T14:14:52.528Z,230.62
2019-03-08T14:15:52.535Z,225.00
2019-03-08T14:16:52.518Z,241.88
2019-03-08T14:17:52.504Z,264.38
2019-03-08T14:18:52.492Z,365.62
2019-03-08T14:19:52.491Z,376.88
2019-03-08T14:20:53.497Z,376.88
2019-03-08T14:21:52.480Z,360.00
2019-03-08T14:22:52.464Z,320.62
2019-03-08T14:23:52.483Z,303.75
2019-03-08T14:24:52.501Z,286.88
2019-03-08T14:25:52.498Z,281.25
2019-03-08T14:26:52.484Z,270.00
2019-03-08T14:27:52.470Z,264.38
2019-03-08T14:28:52.494Z,264.38
2019-03-08T14:29:55.218Z,258.75
2019-03-08T14:30:57.772Z,258.75
2019-03-08T14:31:53.453Z,258.75
2019-03-08T14:32:52.433Z,258.75
2019-03-08T14:33:52.440Z,253.12
2019-03-08T14:34:53.716Z,253.12
2019-03-08T14:35:53.431Z,253.12
2019-03-08T14:36:52.416Z,253.12
2019-03-08T14:37:55.774Z,247.50
2019-03-08T14:38:52.394Z,247.50
2019-03-08T14:39:52.397Z,247.50
2019-03-08T14:40:53.273Z,247.50
2019-03-08T14:41:53.374Z,247.50
2019-03-08T14:42:52.370Z,247.50
2019-03-08T14:43:53.606Z,247.50
2019-03-08T14:44:53.354Z,247.50
2019-03-08T14:45:52.353Z,247.50
2019-03-08T14:46:52.947Z,241.88
2019-03-08T14:47:53.329Z,241.88
2019-03-08T14:48:52.337Z,241.88
2019-03-08T14:49:55.387Z,241.88
2019-03-08T14:50:53.334Z,241.88
2019-03-08T14:51:52.316Z,241.88
2019-03-08T14:52:55.416Z,241.88
2019-03-08T14:53:53.308Z,241.88
2019-03-08T14:54:52.301Z,241.88
2019-03-08T14:55:55.077Z,241.88
2019-03-08T14:56:53.282Z,241.88
2019-03-08T14:57:55.209Z,241.88
2019-03-08T14:58:53.267Z,241.88
2019-03-08T14:59:53.043Z,236.25
2019-03-08T15:00:53.264Z,236.25
2019-03-08T15:01:52.240Z,236.25
2019-03-08T15:02:52.253Z,230.62
2019-03-08T15:03:52.231Z,208.12
2019-03-08T15:04:52.222Z,225.00
2019-03-08T15:05:54.951Z,230.62
2019-03-08T15:06:53.223Z,180.00
2019-03-08T15:07:52.242Z,174.38
2019-03-08T15:08:54.992Z,174.38
2019-03-08T15:09:53.186Z,236.25
2019-03-08T15:10:52.180Z,236.25
2019-03-08T15:11:52.182Z,185.62
2019-03-08T15:12:53.196Z,191.25
2019-03-08T15:13:53.156Z,191.25
2019-03-08T15:14:52.149Z,191.25
2019-03-08T15:15:52.152Z,236.25
2019-03-08T15:16:52.220Z,236.25
2019-03-08T15:17:53.727Z,191.25
2019-03-08T15:18:53.128Z,225.00
2019-03-08T15:19:52.115Z,208.12
2019-03-08T15:20:54.873Z,213.75
2019-03-08T15:21:53.112Z,213.75
2019-03-08T15:22:52.092Z,213.75
2019-03-08T15:23:54.532Z,219.38
2019-03-08T15:24:54.838Z,219.38
2019-03-08T15:25:52.080Z,219.38
2019-03-08T15:26:52.077Z,213.75
2019-03-08T15:27:52.071Z,213.75
2019-03-08T15:28:52.049Z,213.75
2019-03-08T15:29:54.671Z,213.75
2019-03-08T15:30:53.036Z,208.12
2019-03-08T15:31:52.050Z,202.50
2019-03-08T15:32:52.034Z,202.50
2019-03-08T15:33:52.059Z,191.25
2019-03-08T15:34:52.029Z,208.12
2019-03-08T15:35:52.012Z,202.50
2019-03-08T15:36:52.030Z,208.12
2019-03-08T15:37:52.004Z,208.12
2019-03-08T15:38:58.555Z,202.50
2019-03-08T15:39:53.976Z,174.38
2019-03-08T15:40:51.967Z,151.88
2019-03-08T15:41:51.962Z,168.75
2019-03-08T15:42:51.964Z,163.12
2019-03-08T15:43:52.931Z,146.25
2019-03-08T15:44:51.939Z,146.25
2019-03-08T15:45:51.936Z,146.25
2019-03-08T15:46:51.957Z,174.38
2019-03-08T15:47:51.925Z,174.38
2019-03-08T15:48:53.275Z,168.75
2019-03-08T15:49:52.916Z,168.75
2019-03-08T15:50:51.907Z,157.50
2019-03-08T15:51:52.434Z,163.12
2019-03-08T15:52:51.888Z,163.12
2019-03-08T15:53:51.883Z,163.12
2019-03-08T15:54:52.425Z,163.12
2019-03-08T15:55:53.271Z,163.12
2019-03-08T15:56:52.903Z,163.12
2019-03-08T15:57:52.441Z,163.12
2019-03-08T15:58:51.869Z,168.75
2019-03-08T15:59:51.847Z,151.88
2019-03-08T16:00:51.874Z,140.62
2019-03-08T16:01:51.911Z,140.62
2019-03-08T16:02:54.408Z,135.00
2019-03-08T16:03:52.836Z,140.62
2019-03-08T16:04:52.109Z,135.00
2019-03-08T16:05:51.964Z,129.38
2019-03-08T16:06:51.855Z,123.75
2019-03-08T16:07:51.840Z,118.12
2019-03-08T16:08:52.499Z,118.12
2019-03-08T16:09:51.828Z,118.12
2019-03-08T16:10:51.829Z,112.50
2019-03-08T16:11:51.957Z,106.88
2019-03-08T16:12:51.900Z,106.88
2019-03-08T16:13:52.337Z,106.88
2019-03-08T16:14:52.341Z,106.88
2019-03-08T16:15:51.842Z,101.25
2019-03-08T16:16:51.787Z,101.25
2019-03-08T16:17:51.761Z,101.25
2019-03-08T16:18:51.847Z,95.62
2019-03-08T16:19:52.622Z,90.00
2019-03-08T16:20:51.811Z,90.00
2019-03-08T16:21:52.051Z,90.00
2019-03-08T16:22:52.841Z,84.38
2019-03-08T16:23:51.869Z,78.75
2019-03-08T16:24:52.777Z,78.75
2019-03-08T16:25:51.777Z,73.12
2019-03-08T16:26:51.776Z,67.50
2019-03-08T16:27:51.843Z,61.88
2019-03-08T16:28:51.737Z,61.88
2019-03-08T16:29:51.752Z,61.88
2019-03-08T16:30:51.732Z,56.25
2019-03-08T16:31:51.828Z,56.25
2019-03-08T16:32:51.809Z,50.62
2019-03-08T16:33:51.826Z,45.00
2019-03-08T16:34:51.781Z,45.00
2019-03-08T16:35:51.813Z,45.00
2019-03-08T16:36:51.795Z,45.00
2019-03-08T16:37:51.907Z,39.38
2019-03-08T16:38:51.754Z,39.38
2019-03-08T16:39:51.845Z,39.38
2019-03-08T16:40:51.753Z,39.38
2019-03-08T16:41:51.758Z,33.75
2019-03-08T16:42:52.342Z,33.75
2019-03-08T16:43:51.618Z,33.75
2019-03-08T16:44:51.816Z,33.75
2019-03-08T16:45:54.819Z,33.75
2019-03-08T16:46:52.620Z,28.12
2019-03-08T16:47:52.342Z,28.12
2019-03-08T16:48:51.629Z,28.12
2019-03-08T16:49:52.926Z,22.50
2019-03-08T16:50:51.544Z,22.50
2019-03-08T16:51:51.531Z,16.88
2019-03-08T16:52:51.524Z,16.88
2019-03-08T16:53:51.530Z,16.88
2019-03-08T16:54:51.522Z,16.88
2019-03-08T16:55:51.513Z,16.88
2019-03-08T16:56:51.505Z,11.25
2019-03-08T16:57:51.490Z,11.25
2019-03-08T16:58:51.486Z,11.25
2019-03-08T16:59:51.483Z,11.25
2019-03-08T17:00:51.461Z,11.25
2019-03-08T17:01:51.457Z,11.25
2019-03-08T17:02:51.448Z,11.25
2019-03-08T17:03:51.457Z,5.62
2019-03-08T17:04:51.449Z,5.62
2019-03-08T17:05:51.425Z,5.62
2019-03-08T17:06:51.429Z,5.62
2019-03-08T17:07:51.411Z,5.62
2019-03-08T17:08:51.418Z,5.62
2019-03-08T17:09:51.463Z,5.62
2019-03-08T17:10:51.449Z,5.62
2019-03-08T17:11:51.429Z,5.62
2019-03-08T17:12:51.402Z,5.62
2019-03-08T17:13:51.406Z,5.62
2019-03-08T17:14:51.386Z,5.62
2019-03-08T17:15:51.375Z,0.00
2019-03-08T17:16:51.370Z,0.00
2019-03-08T17:17:51.355Z,0.00
2019-03-08T17:18:51.359Z,0.00
2019-03-08T17:19:51.343Z,0.00
2019-03-08T17:20:51.335Z,0.00
2019-03-08T17:21:51.331Z,0.00
2019-03-08T17:22:51.339Z,0.00
2019-03-08T17:23:51.355Z,0.00
2019-03-08T17:24:51.327Z,0.00
2019-03-08T17:25:51.330Z,0.00
2019-03-08T17:26:51.309Z,0.00
2019-03-08T17:27:51.298Z,0.00
2019-03-08T17:28:51.305Z,0.00
2019-03-08T17:29:51.283Z,0.00
2019-03-08T17:30:51.287Z,0.00
2019-03-08T17:31:51.308Z,0.00
2019-03-08T17:32:51.269Z,0.00
2019-03-08T17:33:51.650Z,0.00
2019-03-08T17:34:52.242Z,0.00
2019-03-08T17:35:51.242Z,0.00
2019-03-08T17:36:51.236Z,0.00
2019-03-08T17:37:51.250Z,0.00
2019-03-08T17:38:51.235Z,0.00
2019-03-08T17:39:51.225Z,0.00
2019-03-08T17:40:51.211Z,0.00
2019-03-08T17:41:51.195Z,0.00
2019-03-08T17:42:51.194Z,0.00
2019-03-08T17:43:51.189Z,0.00
2019-03-08T17:44:51.173Z,0.00
2019-03-08T17:45:51.170Z,0.00
2019-03-08T17:46:51.163Z,0.00
2019-03-08T17:47:51.150Z,0.00
2019-03-08T17:48:51.157Z,0.00
2019-03-08T17:49:51.140Z,0.00
2019-03-08T17:50:51.125Z,0.00
2019-03-08T17:51:51.133Z,0.00
2019-03-08T17:52:51.130Z,0.00
2019-03-08T17:53:51.140Z,0.00
2019-03-08T17:54:51.109Z,0.00
2019-03-08T17:55:51.579Z,0.00
2019-03-08T17:56:52.094Z,0.00
2019-03-08T17:57:51.096Z,0.00
2019-03-08T17:58:51.082Z,0.00
2019-03-08T17:59:51.082Z,0.00
2019-03-08T18:00:51.067Z,0.00
2019-03-08T18:01:51.067Z,0.00
2019-03-08T18:02:51.049Z,0.00
2019-03-08T18:03:51.042Z,0.00
2019-03-08T18:04:51.060Z,0.00
2019-03-08T18:05:51.040Z,0.00
2019-03-08T18:06:51.038Z,0.00
2019-03-08T18:07:51.022Z,0.00
2019-03-08T18:08:51.017Z,0.00
2019-03-08T18:10:24.912Z,0.00
2019-03-08T18:10:51.008Z,0.00
2019-03-08T18:11:51.018Z,0.00
2019-03-08T18:12:51.009Z,0.00
2019-03-08T18:13:50.986Z,0.00
2019-03-08T18:14:52.003Z,0.00
2019-03-08T18:15:50.997Z,0.00
2019-03-08T18:16:50.991Z,0.00
2019-03-08T18:17:50.988Z,0.00
2019-03-08T18:18:50.990Z,0.00
2019-03-08T18:19:50.984Z,0.00
2019-03-08T18:20:50.996Z,0.00
2019-03-08T18:21:50.983Z,0.00
2019-03-08T18:22:51.028Z,0.00
2019-03-08T18:23:50.967Z,0.00
2019-03-08T18:24:50.972Z,0.00
2019-03-08T18:25:50.951Z,0.00
2019-03-08T18:26:50.946Z,0.00
2019-03-08T18:27:50.940Z,0.00
2019-03-08T18:28:50.931Z,0.00
2019-03-08T18:29:50.940Z,0.00
2019-03-08T18:30:50.921Z,0.00
2019-03-08T18:31:50.913Z,0.00
2019-03-08T18:32:50.897Z,0.00
2019-03-08T18:33:50.891Z,0.00
2019-03-08T18:34:50.902Z,0.00
2019-03-08T18:35:50.874Z,0.00
2019-03-08T18:36:50.876Z,0.00
2019-03-08T18:37:50.863Z,0.00
2019-03-08T18:38:50.856Z,0.00
2019-03-08T18:39:50.855Z,0.00
2019-03-08T18:40:50.857Z,0.00
2019-03-08T18:41:50.861Z,0.00
2019-03-08T18:42:50.831Z,0.00
2019-03-08T18:43:50.822Z,0.00
2019-03-08T18:44:50.826Z,0.00
2019-03-08T18:45:50.829Z,0.00
2019-03-08T18:46:50.812Z,0.00
2019-03-08T18:47:50.803Z,0.00
2019-03-08T18:48:50.800Z,0.00
2019-03-08T18:49:50.795Z,0.00
2019-03-08T18:50:50.815Z,0.00
2019-03-08T18:51:50.804Z,0.00
2019-03-08T18:52:50.791Z,0.00
2019-03-08T18:53:50.876Z,0.00
2019-03-08T18:54:50.806Z,0.00
2019-03-08T18:55:50.813Z,0.00
2019-03-08T18:56:50.804Z,0.00
2019-03-08T18:57:50.807Z,0.00
2019-03-08T18:58:50.799Z,0.00
2019-03-08T18:59:50.787Z,0.00
2019-03-08T19:00:50.801Z,0.00
2019-03-08T19:01:50.774Z,0.00
2019-03-08T19:02:50.772Z,0.00
2019-03-08T19:03:50.759Z,0.00
2019-03-08T19:04:50.750Z,0.00
2019-03-08T19:05:50.777Z,0.00
2019-03-08T19:06:50.757Z,0.00
2019-03-08T19:07:50.747Z,0.00
2019-03-08T19:08:50.742Z,0.00
2019-03-08T19:09:50.736Z,0.00
2019-03-08T19:10:50.742Z,0.00
2019-03-08T19:11:50.722Z,0.00
2019-03-08T19:12:50.719Z,0.00
2019-03-08T19:13:50.711Z,0.00
2019-03-08T19:14:50.698Z,0.00
2019-03-08T19:15:50.718Z,0.00
2019-03-08T19:16:50.682Z,0.00
2019-03-08T19:17:50.682Z,0.00
2019-03-08T19:18:50.668Z,0.00
2019-03-08T19:19:50.658Z,0.00
2019-03-08T19:20:50.661Z,0.00
2019-03-08T19:21:50.647Z,0.00
2019-03-08T19:22:50.677Z,0.00
2019-03-08T19:23:50.646Z,0.00
2019-03-08T19:24:50.653Z,0.00
2019-03-08T19:25:50.651Z,0.00
2019-03-08T19:26:50.689Z,0.00
2019-03-08T19:27:50.613Z,0.00
2019-03-08T19:28:50.608Z,0.00
2019-03-08T19:29:50.614Z,0.00
2019-03-08T19:30:50.604Z,0.00
2019-03-08T19:31:50.597Z,0.00
2019-03-08T19:32:50.619Z,0.00
2019-03-08T19:33:50.569Z,0.00
2019-03-08T19:34:50.578Z,0.00
2019-03-08T19:35:50.567Z,0.00
2019-03-08T19:36:50.554Z,0.00
2019-03-08T19:37:50.557Z,0.00
2019-03-08T19:38:50.539Z,0.00
2019-03-08T19:39:50.531Z,0.00
2019-03-08T19:40:50.526Z,0.00
2019-03-08T19:41:50.554Z,0.00
2019-03-08T19:42:50.515Z,0.00
2019-03-08T19:43:50.501Z,0.00
2019-03-08T19:44:50.513Z,0.00
2019-03-08T19:45:50.483Z,0.00
2019-03-08T19:46:50.506Z,0.00
2019-03-08T19:47:50.497Z,0.00
2019-03-08T19:48:50.505Z,0.00
2019-03-08T19:49:50.490Z,0.00
2019-03-08T19:50:50.480Z,0.00
2019-03-08T19:51:50.482Z,0.00
2019-03-08T19:52:50.457Z,0.00
2019-03-08T19:53:50.451Z,0.00
2019-03-08T19:54:50.446Z,0.00
2019-03-08T19:55:50.445Z,0.00
2019-03-08T19:56:50.441Z,0.00
2019-03-08T19:57:50.429Z,0.00
2019-03-08T19:58:50.432Z,0.00
2019-03-08T19:59:50.411Z,0.00
2019-03-08T20:00:50.413Z,0.00
2019-03-08T20:01:50.409Z,0.00
2019-03-08T20:02:50.394Z,0.00
2019-03-08T20:03:50.387Z,0.00
2019-03-08T20:04:50.380Z,0.00
2019-03-08T20:05:50.376Z,0.00
2019-03-08T20:06:50.382Z,0.00
2019-03-08T20:07:50.377Z,0.00
2019-03-08T20:08:50.363Z,0.00
2019-03-08T20:09:50.351Z,0.00
2019-03-08T20:10:50.359Z,0.00
2019-03-08T20:11:50.355Z,0.00
2019-03-08T20:12:50.338Z,0.00
2019-03-08T20:13:50.333Z,0.00
2019-03-08T20:14:50.322Z,0.00
2019-03-08T20:15:50.310Z,0.00
2019-03-08T20:16:50.363Z,0.00
2019-03-08T20:17:50.331Z,0.00
2019-03-08T20:18:50.326Z,0.00
2019-03-08T20:19:50.311Z,0.00
2019-03-08T20:20:50.334Z,0.00
2019-03-08T20:21:50.326Z,0.00
2019-03-08T20:22:50.296Z,0.00
2019-03-08T20:23:50.292Z,0.00
2019-03-08T20:24:50.274Z,0.00
2019-03-08T20:25:50.281Z,0.00
2019-03-08T20:26:50.285Z,0.00
2019-03-08T20:27:50.268Z,0.00
2019-03-08T20:28:50.257Z,0.00
2019-03-08T20:29:50.262Z,0.00
2019-03-08T20:30:50.243Z,0.00
2019-03-08T20:31:50.263Z,0.00
2019-03-08T20:32:50.231Z,0.00
2019-03-08T20:33:50.223Z,0.00
2019-03-08T20:34:50.213Z,0.00
2019-03-08T20:35:50.245Z,0.00
2019-03-08T20:36:50.236Z,0.00
2019-03-08T20:37:50.195Z,0.00
2019-03-08T20:38:50.192Z,0.00
2019-03-08T20:39:50.181Z,0.00
2019-03-08T20:40:50.195Z,0.00
2019-03-08T20:41:50.169Z,0.00
2019-03-08T20:42:50.173Z,0.00
2019-03-08T20:43:50.154Z,0.00
2019-03-08T20:44:50.156Z,0.00
2019-03-08T20:45:50.160Z,0.00
2019-03-08T20:46:50.137Z,0.00
2019-03-08T20:47:50.139Z,0.00
2019-03-08T20:48:50.137Z,0.00
2019-03-08T20:49:50.128Z,0.00
2019-03-08T20:50:50.117Z,0.00
2019-03-08T20:51:50.133Z,0.00
2019-03-08T20:52:50.112Z,0.00
2019-03-08T20:53:50.099Z,0.00
2019-03-08T20:54:50.086Z,0.00
2019-03-08T20:55:50.086Z,0.00
2019-03-08T20:56:50.088Z,0.00
2019-03-08T20:57:50.081Z,0.00
2019-03-08T20:58:50.061Z,0.00
2019-03-08T20:59:50.057Z,0.00
2019-03-08T21:00:50.052Z,0.00
2019-03-08T21:01:50.054Z,0.00
2019-03-08T21:02:50.031Z,0.00
2019-03-08T21:03:50.027Z,0.00
2019-03-08T21:04:50.028Z,0.00
2019-03-08T21:05:50.795Z,0.00
2019-03-08T21:06:51.046Z,0.00
2019-03-08T21:07:50.056Z,0.00
2019-03-08T21:08:50.041Z,0.00
2019-03-08T21:09:50.018Z,0.00
2019-03-08T21:10:50.018Z,0.00
2019-03-08T21:11:50.013Z,0.00
2019-03-08T21:12:49.996Z,0.00
2019-03-08T21:13:50.985Z,0.00
2019-03-08T21:14:49.991Z,0.00
2019-03-08T21:15:49.970Z,0.00
2019-03-08T21:16:49.959Z,0.00
2019-03-08T21:17:49.983Z,0.00
2019-03-08T21:18:49.955Z,0.00
2019-03-08T21:19:49.947Z,0.00
2019-03-08T21:20:49.945Z,0.00
2019-03-08T21:21:49.941Z,0.00
2019-03-08T21:22:49.939Z,0.00
2019-03-08T21:23:49.940Z,0.00
2019-03-08T21:24:49.918Z,0.00
2019-03-08T21:25:49.908Z,0.00
2019-03-08T21:26:49.907Z,0.00
2019-03-08T21:27:49.909Z,0.00
2019-03-08T21:28:49.892Z,0.00
2019-03-08T21:29:49.899Z,0.00
2019-03-08T21:30:49.873Z,0.00
2019-03-08T21:31:49.868Z,0.00
2019-03-08T21:32:49.894Z,0.00
2019-03-08T21:33:49.875Z,0.00
2019-03-08T21:34:49.872Z,0.00
2019-03-08T21:35:49.851Z,0.00
2019-03-08T21:36:49.847Z,0.00
2019-03-08T21:37:49.859Z,0.00
2019-03-08T21:38:49.834Z,0.00
2019-03-08T21:39:49.830Z,0.00
2019-03-08T21:40:49.818Z,0.00
2019-03-08T21:41:49.827Z,0.00
2019-03-08T21:42:49.859Z,0.00
2019-03-08T21:43:49.816Z,0.00
2019-03-08T21:44:49.811Z,0.00
2019-03-08T21:45:49.818Z,0.00
2019-03-08T21:46:49.789Z,0.00
2019-03-08T21:47:49.791Z,0.00
2019-03-08T21:48:49.773Z,0.00
2019-03-08T21:49:49.773Z,0.00
2019-03-08T21:50:49.778Z,0.00
2019-03-08T21:51:49.765Z,0.00
2019-03-08T21:52:49.779Z,0.00
2019-03-08T21:53:49.757Z,0.00
2019-03-08T21:54:49.752Z,0.00
2019-03-08T21:55:49.738Z,0.00
2019-03-08T21:56:49.731Z,0.00
2019-03-08T21:57:49.755Z,0.00
2019-03-08T21:58:49.730Z,0.00
2019-03-08T21:59:49.731Z,0.00
2019-03-08T22:00:49.723Z,0.00
2019-03-08T22:01:49.729Z,0.00
2019-03-08T22:02:49.738Z,0.00
2019-03-08T22:03:49.725Z,0.00
2019-03-08T22:04:49.708Z,0.00
2019-03-08T22:05:49.701Z,0.00
2019-03-08T22:06:49.698Z,0.00
2019-03-08T22:07:49.702Z,0.00
2019-03-08T22:08:49.687Z,0.00
2019-03-08T22:09:49.668Z,0.00
2019-03-08T22:10:49.659Z,0.00
2019-03-08T22:11:49.654Z,0.00
2019-03-08T22:12:49.652Z,0.00
2019-03-08T22:13:49.653Z,0.00
2019-03-08T22:14:49.643Z,0.00
2019-03-08T22:15:49.631Z,0.00
2019-03-08T22:16:49.612Z,0.00
2019-03-08T22:17:49.605Z,0.00
2019-03-08T22:18:49.622Z,0.00
2019-03-08T22:19:49.596Z,0.00
2019-03-08T22:20:49.592Z,0.00
2019-03-08T22:21:49.590Z,0.00
2019-03-08T22:22:49.589Z,0.00
2019-03-08T22:23:49.588Z,0.00
2019-03-08T22:24:49.568Z,0.00
2019-03-08T22:25:49.558Z,0.00
2019-03-08T22:26:49.554Z,0.00
2019-03-08T22:27:49.540Z,0.00
2019-03-08T22:28:49.547Z,0.00
2019-03-08T22:29:49.537Z,0.00
2019-03-08T22:30:49.524Z,0.00
2019-03-08T22:31:49.527Z,0.00
2019-03-08T22:32:49.518Z,0.00
2019-03-08T22:33:49.511Z,0.00
2019-03-08T22:34:49.498Z,0.00
2019-03-08T22:35:49.493Z,0.00
2019-03-08T22:36:49.488Z,0.00
2019-03-08T22:37:49.481Z,0.00
2019-03-08T22:38:49.479Z,0.00
2019-03-08T22:39:49.469Z,0.00
2019-03-08T22:40:49.464Z,0.00
2019-03-08T22:41:49.449Z,0.00
2019-03-08T22:42:49.450Z,0.00
2019-03-08T22:43:49.455Z,0.00
2019-03-08T22:44:49.430Z,0.00
2019-03-08T22:45:49.422Z,0.00
2019-03-08T22:46:49.416Z,0.00
2019-03-08T22:47:49.417Z,0.00
2019-03-08T22:48:49.415Z,0.00
2019-03-08T22:49:49.408Z,0.00
2019-03-08T22:50:49.395Z,0.00
2019-03-08T22:51:49.384Z,0.00
2019-03-08T22:52:49.376Z,0.00
2019-03-08T22:53:49.393Z,0.00
2019-03-08T22:54:49.370Z,0.00
2019-03-08T22:55:49.350Z,0.00
2019-03-08T22:56:49.346Z,0.00
2019-03-08T22:57:49.345Z,0.00
2019-03-08T22:58:49.338Z,0.00
2019-03-08T22:59:49.328Z,0.00
2019-03-08T23:00:49.322Z,0.00
2019-03-08T23:01:49.312Z,0.00
2019-03-08T23:02:49.308Z,0.00
2019-03-08T23:03:49.298Z,0.00
2019-03-08T23:04:49.300Z,0.00
2019-03-08T23:05:49.280Z,0.00
2019-03-08T23:06:49.272Z,0.00
2019-03-08T23:07:49.265Z,0.00
2019-03-08T23:08:49.258Z,0.00
2019-03-08T23:09:49.261Z,0.00
2019-03-08T23:10:49.237Z,0.00
2019-03-08T23:11:49.251Z,0.00
2019-03-08T23:12:49.252Z,0.00
2019-03-08T23:13:49.247Z,0.00
2019-03-08T23:14:49.249Z,0.00